CMD weather

Cullman Regional Airport-Folsom Field
Cullman, Alabama, United States

Public forecast

Using degrees Fahrenheit for public forecast. Weather courtesy of forecast.io.

METAR (pilot weather report)

Retrieved 2019/08/18 18:35 UTC (0 seconds ago):

KCMD 181835Z AUTO 29003KT 10SM CLR 35/17 A3006 RMK AO2 T03450165

TAF (pilot weather forecast)

Closest forecast is Huntsville International Carl T Jones Field, 22.5 nm (41.7 km) N. Retrieved 2019/08/18 18:22 UTC (0 seconds ago):

TAF KHSV 181720Z 1818/1918 VRB04KT P6SM FEW250